Latest Weather Observations for Bathurst Airport

IDN60801

Issued at 1:32 pm EST Saturday 24 June 2017 (issued every 30 minutes, with the page automatically refreshed every 10 minutes)

About weather observations | Map of weather stations | Latest weather observations for NSW | Other Formats
Station Details ID: 063291 Name: BATHURST AIRPORT AWS Lat: -33.41 Lon: 149.65 Height: 744.5 m
Data from the previous 72 hours. | See also: Recent months at Bathurst Airport
Date/Time
EST
Temp
°C
App
Temp
°C
Dew
Point
°C
Rel
Hum
%
Delta-T
°C
Wind Press
QNH
hPa
Press
MSL
hPa
Rain since
9am
mm
Dir  Spd
km/h
Gust
km/h
Spd
kts
Gust
kts
24/01:30pm 13.6 6.8 0.9 42 5.6 WSW 26 35 14 19 1017.5 1018.0 0.0
24/01:00pm 13.2 6.4 0.6 42 5.5 WSW 26 35 14 19 1017.7 1018.2 0.0
24/12:30pm 13.0 5.3 0.1 41 5.6 WSW 30 37 16 20 1017.8 1018.4 0.0
24/12:00pm 13.1 5.6 1.5 45 5.2 W 30 37 16 20 1018.1 1018.7 0.0
24/11:51am 13.1 6.1 1.8 46 5.1 W 28 37 15 20 1018.1 1018.7 0.0
24/11:30am 12.7 8.8 3.4 53 4.3 WNW 13 19 7 10 1018.5 1019.1 0.0
24/11:00am 11.7 8.1 2.7 54 4.1 WNW 11 17 6 9 1018.9 1019.4 0.0
24/10:30am 10.4 7.1 2.3 57 3.6 W 9 19 5 10 1019.1 1019.7 0.0
24/10:00am 10.1 7.2 2.7 60 3.3 NW 7 11 4 6 1019.1 1019.7 0.0
24/09:30am 8.6 5.7 2.8 67 2.6 N 7 9 4 5 1019.1 1019.7 0.0
24/09:00am 7.2 4.5 3.6 78 1.6 NNE 7 9 4 5 1019.0 1019.6 0.0
24/08:30am 3.9 1.2 2.4 90 0.6 NNE 6 7 3 4 1018.9 1019.4 0.0
24/08:00am 4.5 1.3 3.0 90 0.6 NE 9 9 5 5 1018.6 1019.2 0.0
24/07:30am 1.6 -1.5 1.5 99 0.0 NE 7 9 4 5 1018.4 1019.0 0.0
24/07:00am 1.4 -2.0 -0.4 88 0.7 NE 7 9 4 5 1018.0 1018.6 0.0
24/06:30am 3.1 0.0 1.3 88 0.7 ENE 7 9 4 5 1017.3 1017.9 0.0
24/06:00am 2.8 -0.8 0.7 86 0.8 ENE 9 11 5 6 1016.9 1017.5 0.0
24/05:30am 2.7 -0.9 0.8 87 0.8 ENE 9 9 5 5 1016.8 1017.4 0.0
24/05:00am 3.6 0.5 1.2 84 1.0 ENE 7 9 4 5 1016.6 1017.2 0.0
24/04:30am 3.4 0.3 1.6 88 0.7 NE 7 11 4 6 1016.8 1017.4 0.0
24/04:00am 1.3 -1.8 0.0 91 0.5 NNE 6 7 3 4 1016.6 1017.2 0.0
24/03:30am 2.2 -0.8 -1.8 75 1.5 NE 4 9 2 5 1016.5 1017.0 0.0
24/03:00am 4.3 1.4 1.7 83 1.1 NE 6 7 3 4 1016.8 1017.4 0.0
24/02:30am 3.5 0.4 1.1 84 1.0 NNE 7 9 4 5 1016.9 1017.5 0.0
24/02:00am 2.3 -0.9 1.0 91 0.5 NNE 7 9 4 5 1016.8 1017.4 0.0
24/01:30am 2.2 -1.4 0.6 89 0.6 NE 9 11 5 6 1016.6 1017.2 0.0
24/01:00am 2.5 -0.9 -0.4 81 1.1 N 7 9 4 5 1017.1 1017.7 0.0
24/12:30am 5.3 3.5 1.4 76 1.6 CALM 0 0 0 0 1017.1 1017.7 0.0
24/12:00am 5.4 2.8 1.1 74 1.8 NNW 4 7 2 4 1017.3 1017.9 0.0
 
Date/Time
EST
Temp
°C
App
Temp
°C
Dew
Point
°C
Rel
Hum
%
Delta-T
°C
Wind Press
QNH
hPa
Press
MSL
hPa
Rain since
9am
mm
Dir  Spd
km/h
Gust
km/h
Spd
kts
Gust
kts
23/11:30pm 5.9 4.2 1.6 74 1.8 CALM 0 0 0 0 1017.5 1018.0 0.0
23/11:00pm 5.6 2.7 1.7 76 1.6 NNE 6 9 3 5 1017.9 1018.5 0.0
23/10:30pm 5.4 2.4 1.9 78 1.5 N 7 9 4 5 1018.2 1018.8 0.0
23/10:00pm 5.7 2.8 2.7 81 1.3 N 7 9 4 5 1018.1 1018.7 0.0
23/09:30pm 5.3 1.2 2.1 80 1.4 NW 13 15 7 8 1018.2 1018.8 0.0
23/09:00pm 5.4 2.2 1.0 73 1.8 NNW 7 9 4 5 1017.7 1018.2 0.0
23/08:30pm 6.2 3.2 1.9 74 1.8 NNW 7 7 4 4 1018.0 1018.6 0.0
23/08:00pm 6.5 3.7 1.8 72 2.0 NW 6 7 3 4 1018.2 1018.8 0.0
23/07:30pm 6.5 2.7 1.6 71 2.1 NW 11 15 6 8 1018.1 1018.7 0.0
23/07:00pm 6.5 1.5 1.4 70 2.1 WNW 17 19 9 10 1017.9 1018.5 0.0
23/06:30pm 7.5 2.3 2.4 70 2.2 WNW 19 20 10 11 1017.7 1018.2 0.0
23/06:00pm 7.3 2.8 2.4 71 2.1 WNW 15 17 8 9 1017.8 1018.4 0.0
23/05:30pm 7.9 3.4 2.2 67 2.5 WNW 15 17 8 9 1017.7 1018.2 0.0
23/05:00pm 8.7 3.8 2.1 63 2.9 NW 17 19 9 10 1017.6 1018.1 0.0
23/04:30pm 10.2 4.7 1.8 56 3.7 WNW 20 26 11 14 1017.7 1018.2 0.0
23/04:00pm 11.9 6.1 2.1 51 4.4 NW 22 28 12 15 1017.7 1018.2 0.0
23/03:30pm 12.8 6.1 1.2 45 5.1 NW 26 33 14 18 1017.6 1018.1 0.0
23/03:00pm 13.9 7.8 0.2 39 6.0 WNW 22 28 12 15 1017.7 1018.2 0.0
23/02:30pm 13.5 7.5 0.9 42 5.6 NW 22 32 12 17 1017.7 1018.2 0.0
23/02:00pm 13.2 8.5 3.3 51 4.6 WNW 17 24 9 13 1017.6 1018.1 0.0
23/01:30pm 12.4 8.8 4.9 60 3.6 NNW 13 19 7 10 1018.2 1018.8 0.0
23/01:00pm 10.5 6.8 4.4 66 2.8 N 13 17 7 9 1018.7 1019.3 0.0
23/12:30pm 10.5 6.5 5.1 69 2.6 N 15 17 8 9 1019.2 1019.8 0.0
23/12:00pm 9.3 5.5 3.9 69 2.5 NNW 13 17 7 9 1019.9 1020.5 0.0
23/11:30am 9.5 5.7 4.1 69 2.5 N 13 17 7 9 1020.6 1021.2 0.0
23/11:00am 7.9 5.3 4.3 78 1.6 NW 7 9 4 5 1021.4 1022.1 0.0
23/10:30am 6.5 4.5 4.2 85 1.0 NNE 4 7 2 4 1021.9 1022.5 0.0
23/10:00am 4.0 2.5 2.8 92 0.5 CALM 0 2 0 1 1022.2 1022.8 0.0
23/09:30am 3.0 0.6 2.3 95 0.3 WSW 4 6 2 3 1022.7 1023.4 0.0
23/09:00am 2.5 -0.2 2.4 99 0.0 SW 6 7 3 4 1022.5 1023.2 0.0
23/08:30am 1.4 -1.5 1.3 99 0.0 SSW 6 9 3 5 1022.2 1022.8 0.0
23/08:00am 0.5 -1.4 0.4 99 0.0 CALM 0 2 0 1 1022.3 1022.9 0.0
23/07:30am -0.7 -2.8 -0.8 99 0.0 CALM 0 0 0 0 1022.2 1022.8 0.0
23/07:00am -1.1 -3.6 -1.2 99 0.0 SSW 2 6 1 3 1022.1 1022.7 0.0
23/06:30am -1.4 -4.7 -1.5 99 0.0 SSW 6 7 3 4 1022.1 1022.7 0.0
23/06:00am -0.9 -3.0 -1.0 99 0.0 CALM 0 0 0 0 1021.5 1022.2 0.0
23/05:30am -0.5 -3.9 -0.6 99 0.0 SSW 7 9 4 5 1021.4 1022.1 0.0
23/05:00am -0.1 -2.1 -0.2 99 0.0 CALM 0 0 0 0 1022.0 1022.6 0.0
23/04:30am -0.5 -2.6 -0.6 99 0.0 CALM 0 4 0 2 1022.4 1023.1 0.0
23/04:00am 0.3 -3.4 0.2 99 0.0 S 9 9 5 5 1022.5 1023.2 0.0
23/03:30am 0.2 -3.1 0.1 99 0.0 SE 7 9 4 5 1022.4 1023.1 0.0
23/03:00am 0.3 -1.7 0.2 99 0.0 CALM 0 0 0 0 1022.6 1023.3 0.0
23/02:30am 0.6 -1.3 0.5 99 0.0 CALM 0 0 0 0 1022.8 1023.5 0.0
23/02:00am 0.6 -2.4 0.5 99 0.0 SE 6 6 3 3 1023.0 1023.7 0.0
23/01:30am 0.2 -1.8 0.1 99 0.0 CALM 0 0 0 0 1023.0 1023.7 0.0
23/01:00am 0.9 -1.7 0.8 99 0.0 SE 4 7 2 4 1023.0 1023.7 0.0
23/12:30am 1.1 -0.7 1.0 99 0.0 CALM 0 0 0 0 1023.7 1024.4 0.0
23/12:00am 1.9 -1.6 1.3 96 0.2 SSE 9 11 5 6 1023.8 1024.5 0.0
 
Date/Time
EST
Temp
°C
App
Temp
°C
Dew
Point
°C
Rel
Hum
%
Delta-T
°C
Wind Press
QNH
hPa
Press
MSL
hPa
Rain since
9am
mm
Dir  Spd
km/h
Gust
km/h
Spd
kts
Gust
kts
22/11:30pm 3.0 0.3 2.7 98 0.1 SSE 6 11 3 6 1023.8 1024.5 0.0
22/11:00pm 2.7 0.9 1.4 91 0.5 CALM 0 0 0 0 1024.3 1025.0 0.0
22/10:30pm 3.7 2.1 2.4 91 0.5 CALM 0 6 0 3 1024.7 1025.4 0.0
22/10:00pm 3.5 1.9 2.3 92 0.5 CALM 0 0 0 0 1024.8 1025.5 0.0
22/09:30pm 4.1 1.5 0.8 79 1.3 SSE 4 6 2 3 1024.9 1025.6 0.0
22/09:00pm 6.4 3.5 2.7 77 1.6 NE 7 7 4 4 1024.8 1025.5 0.0
22/08:30pm 6.9 4.2 3.5 79 1.5 NE 7 9 4 5 1025.0 1025.7 0.0
22/08:00pm 5.6 2.4 2.8 82 1.2 NE 9 11 5 6 1024.9 1025.6 0.0
22/07:30pm 5.1 1.7 1.8 79 1.4 NE 9 13 5 7 1024.9 1025.6 0.0
22/07:00pm 6.7 3.4 2.2 73 1.9 NE 9 11 5 6 1025.0 1025.7 0.0
22/06:30pm 7.9 4.7 2.8 70 2.2 NE 9 11 5 6 1024.8 1025.5 0.0
22/06:00pm 9.1 6.3 2.9 65 2.8 N 7 7 4 4 1024.8 1025.5 0.0
22/05:30pm 9.1 6.0 1.3 58 3.4 N 7 9 4 5 1024.8 1025.5 0.0
22/05:00pm 10.7 7.6 1.3 52 4.1 NW 7 9 4 5 1024.7 1025.4 0.0
22/04:30pm 12.9 9.5 1.9 47 5.0 NW 9 11 5 6 1024.5 1025.2 0.0
22/04:00pm 14.0 10.6 2.0 44 5.4 WNW 9 11 5 6 1024.9 1025.6 0.0
22/03:30pm 14.3 9.7 1.6 42 5.8 WNW 15 17 8 9 1025.2 1025.9 0.0
22/03:00pm 14.4 10.4 2.6 45 5.4 WNW 13 20 7 11 1025.5 1026.2 0.0
22/02:30pm 14.7 10.8 3.2 46 5.4 NW 13 20 7 11 1025.1 1025.8 0.0
22/02:00pm 14.8 10.5 3.3 46 5.4 NW 15 20 8 11 1025.1 1025.8 0.0
22/01:30pm 14.3 9.7 3.5 48 5.1 NNW 17 26 9 14 1025.4 1026.1 0.0
22/01:00pm 13.8 10.0 3.9 51 4.7 NNW 13 20 7 11 1025.7 1026.4 0.0
22/12:30pm 11.7 8.8 4.4 61 3.4 W 9 13 5 7 1026.5 1027.2 0.0
22/12:00pm 10.4 7.9 5.0 69 2.5 WSW 7 11 4 6 1027.0 1027.8 0.0
22/11:30am 9.4 7.2 5.4 76 1.9 W 6 9 3 5 1027.7 1028.4 0.0
22/11:00am 8.3 6.3 6.1 86 1.0 W 6 7 3 4 1028.2 1029.0 0.0
22/10:30am 6.2 4.5 6.1 99 0.0 N 4 7 2 4 1028.7 1029.5 0.0
22/10:09am 5.0 3.9 5.0 100 0.0 CALM 0 0 0 0 1029.2 1029.9 0.0
22/10:05am 5.0 3.9 5.0 100 0.0 CALM 0 0 0 0 1029.2 1029.9 0.0
22/10:00am 4.0 2.7 4.0 100 0.0 CALM 0 0 0 0 1029.2 1029.9 0.0
22/09:30am 1.4 -0.4 1.4 100 0.0 CALM 0 0 0 0 1029.2 1029.9 0.0
22/09:00am -0.1 -2.1 -0.1 100 0.0 CALM 0 0 0 0 1029.2 1029.9 0.2
22/08:30am -1.4 -3.6 -1.4 100 0.0 CALM 0 0 0 0 1028.8 1029.6 0.0
22/08:00am -1.7 -4.3 -1.8 99 0.0 S 2 7 1 4 1028.8 1029.6 0.0
22/07:30am -3.4 -5.8 -3.5 99 -0.1 CALM 0 0 0 0 1028.6 1029.4 0.0
22/07:00am -3.7 -6.2 -3.8 99 -0.1 CALM 0 0 0 0 1028.4 1029.2 0.0
22/06:30am -2.8 -6.3 -2.9 99 -0.1 S 6 7 3 4 1027.9 1028.6 0.0
22/06:00am -2.5 -6.0 -2.6 99 -0.1 S 6 6 3 3 1027.6 1028.3 0.0
22/05:30am -2.9 -5.3 -3.0 99 -0.1 CALM 0 0 0 0 1027.3 1028.1 0.0
22/05:00am -2.3 -4.6 -2.4 99 -0.1 CALM 0 0 0 0 1027.2 1028.0 0.0
22/04:30am -2.4 -5.1 -2.5 99 -0.1 S 2 7 1 4 1027.2 1028.0 0.0
22/04:16am -1.1 -3.2 -1.1 100 0.0 CALM 0 0 0 0 1027.1 1027.9 0.0
22/04:00am -0.8 -3.7 -0.8 100 0.0 S 4 7 2 4 1027.1 1027.9 0.0
22/03:30am 1.0 -2.2 1.0 100 0.0 SSW 7 9 4 5 1027.1 1027.9 0.0
22/03:19am 0.1 -3.0 0.1 100 0.0 S 6 7 3 4 1027.2 1028.0 0.0
22/03:00am 0.6 -3.0 0.6 100 0.0 SSW 9 9 5 5 1027.2 1028.0 0.0
22/02:30am 0.1 -3.6 0.1 100 0.0 SW 9 9 5 5 1027.3 1028.1 0.0
22/02:26am 0.5 -2.7 0.5 100 0.0 SSW 7 9 4 5 1027.3 1028.1 0.0
22/02:14am 1.4 -1.7 1.4 100 0.0 SSW 7 9 4 5 1027.2 1028.0 0.0
22/02:00am 1.1 -2.0 1.1 100 0.0 SSW 7 9 4 5 1027.2 1028.0 0.0
22/01:48am 1.7 -1.3 1.7 100 0.0 SSW 7 9 4 5 1027.2 1028.0 0.0
22/01:30am 2.3 -1.0 2.3 100 0.0 SSW 9 11 5 6 1027.3 1028.1 0.0
22/01:00am 2.4 -0.9 2.4 100 0.0 SSW 9 11 5 6 1027.4 1028.2 0.0
22/12:30am 1.7 0.0 1.6 99 0.0 CALM 0 7 0 4 1027.6 1028.3 0.0
22/12:13am 2.7 0.0 2.7 100 0.0 SSW 6 9 3 5 1027.6 1028.3 0.0
22/12:00am 3.3 0.1 3.3 100 0.0 SSW 9 11 5 6 1027.7 1028.4 0.0
 
Date/Time
EST
Temp
°C
App
Temp
°C
Dew
Point
°C
Rel
Hum
%
Delta-T
°C
Wind Press
QNH
hPa
Press
MSL
hPa
Rain since
9am
mm
Dir  Spd
km/h
Gust
km/h
Spd
kts
Gust
kts
21/11:58pm 3.0 -0.2 3.0 100 0.0 SSW 9 11 5 6 1027.7 1028.4 0.0
21/11:40pm 2.9 0.0 2.8 99 0.0 SSW 7 9 4 5 1027.9 1028.6 0.0
21/11:30pm 3.1 0.3 3.0 99 0.0 S 7 9 4 5 1027.8 1028.5 0.0
21/11:00pm 3.6 0.9 3.5 99 0.0 SSW 7 9 4 5 1028.0 1028.7 0.0
21/10:30pm 5.4 3.0 5.3 99 0.0 E 7 9 4 5 1028.2 1029.0 0.0
21/10:00pm 5.2 2.7 4.0 92 0.5 E 6 11 3 6 1028.2 1029.0 0.0
21/09:30pm 6.5 3.8 5.5 93 0.5 E 9 11 5 6 1028.0 1028.7 0.0
21/09:00pm 5.4 2.8 4.2 92 0.5 SE 7 9 4 5 1028.0 1028.7 0.0
21/08:30pm 6.6 4.0 4.1 84 1.1 E 7 11 4 6 1028.2 1029.0 0.0
21/08:00pm 7.2 4.7 4.0 80 1.4 ENE 6 7 3 4 1028.1 1028.9 0.0
21/07:30pm 8.1 5.7 4.3 77 1.7 NE 6 9 3 5 1028.0 1028.7 0.0
21/07:00pm 8.3 5.7 4.1 75 1.9 E 7 9 4 5 1027.4 1028.2 0.0
21/06:30pm 8.4 4.9 3.5 71 2.2 ENE 11 13 6 7 1026.9 1027.7 0.0
21/06:00pm 9.4 5.9 3.6 67 2.6 ESE 11 13 6 7 1026.8 1027.5 0.0
21/05:30pm 10.0 6.0 3.1 62 3.1 SE 13 15 7 8 1026.3 1027.0 0.0
21/05:00pm 11.3 7.9 2.1 53 4.1 SE 9 13 5 7 1025.8 1026.6 0.0
21/04:30pm 13.0 8.9 2.3 48 4.9 ESE 13 17 7 9 1025.3 1026.0 0.0
21/04:00pm 14.0 9.3 1.0 41 5.8 SE 15 19 8 10 1025.2 1025.9 0.0
21/03:30pm 14.5 9.6 -0.4 36 6.5 SE 15 20 8 11 1025.2 1025.9 0.0
21/03:00pm 14.9 9.4 -2.1 31 7.1 SE 17 20 9 11 1025.3 1026.0 0.0
21/02:30pm 15.4 9.7 -3.5 27 7.8 ESE 17 20 9 11 1025.4 1026.1 0.0
21/02:00pm 16.0 10.7 -4.0 25 8.1 E 15 20 8 11 1025.2 1025.9 0.0

Other Formats:

Comma delimited format used in spreadsheet applications
http://www.bom.gov.au/fwo/IDN60801/IDN60801.94729.axf

JavaScript Object Notation format (JSON) in row-major order
http://www.bom.gov.au/fwo/IDN60801/IDN60801.94729.json